createdAt,value
2017-10-02T00:00:46.293Z,12.60
2017-10-02T00:03:13.902Z,12.60
2017-10-02T00:05:41.411Z,12.60
2017-10-02T00:08:09.018Z,12.60
2017-10-02T00:10:36.574Z,12.60
2017-10-02T00:13:04.150Z,12.60
2017-10-02T00:15:31.698Z,12.70
2017-10-02T00:17:59.254Z,12.60
2017-10-02T00:20:26.810Z,12.60
2017-10-02T00:22:54.786Z,12.60
2017-10-02T00:25:22.356Z,12.60
2017-10-02T00:27:50.415Z,12.60
2017-10-02T00:30:17.911Z,12.60
2017-10-02T00:32:45.423Z,12.60
2017-10-02T00:35:12.934Z,12.60
2017-10-02T00:37:40.457Z,12.60
2017-10-02T00:40:07.999Z,12.60
2017-10-02T00:42:35.502Z,12.70
2017-10-02T00:45:03.022Z,12.70
2017-10-02T00:47:31.346Z,12.70
2017-10-02T00:49:58.859Z,12.70
2017-10-02T00:52:26.415Z,12.60
2017-10-02T00:54:53.934Z,12.70
2017-10-02T00:57:21.433Z,12.70
2017-10-02T00:59:48.954Z,12.70
2017-10-02T01:02:16.542Z,12.70
2017-10-02T01:04:44.055Z,12.70
2017-10-02T01:07:11.666Z,12.70
2017-10-02T01:09:39.218Z,12.80
2017-10-02T01:12:06.723Z,12.70
2017-10-02T01:14:34.339Z,12.70
2017-10-02T01:17:01.990Z,12.70
2017-10-02T01:19:30.250Z,12.70
2017-10-02T01:21:58.533Z,12.70
2017-10-02T01:24:26.831Z,12.70
2017-10-02T01:26:54.386Z,12.70
2017-10-02T01:29:21.946Z,12.70
2017-10-02T01:31:49.462Z,12.70
2017-10-02T01:34:17.538Z,12.70
2017-10-02T01:36:45.150Z,12.70
2017-10-02T01:39:12.690Z,12.60
2017-10-02T01:41:40.201Z,12.70
2017-10-02T01:44:07.704Z,12.70
2017-10-02T01:46:35.283Z,12.60
2017-10-02T01:49:02.783Z,12.60
2017-10-02T01:51:30.382Z,12.60
2017-10-02T01:53:57.923Z,12.60
2017-10-02T01:56:26.222Z,12.50
2017-10-02T01:58:53.726Z,12.50
2017-10-02T02:01:21.236Z,12.40
2017-10-02T02:03:48.902Z,12.40
2017-10-02T02:06:16.394Z,12.40
2017-10-02T02:08:44.015Z,12.30
2017-10-02T02:11:11.515Z,12.30
2017-10-02T02:13:39.030Z,12.30
2017-10-02T02:16:06.527Z,12.30
2017-10-02T02:18:34.042Z,12.30
2017-10-02T02:21:01.602Z,12.10
2017-10-02T02:23:29.162Z,12.10
2017-10-02T02:25:56.739Z,12.10
2017-10-02T02:28:24.254Z,12.20
2017-10-02T02:30:51.752Z,12.10
2017-10-02T02:33:19.270Z,12.10
2017-10-02T02:35:47.570Z,12.10
2017-10-02T02:38:15.107Z,12.10
2017-10-02T02:40:44.038Z,12.00
2017-10-02T02:43:11.561Z,12.00
2017-10-02T02:45:39.861Z,12.10
2017-10-02T02:48:07.818Z,12.00
2017-10-02T02:50:36.123Z,12.10
2017-10-02T02:53:03.669Z,12.00
2017-10-02T02:55:31.236Z,12.00
2017-10-02T02:57:58.742Z,12.00
2017-10-02T03:00:26.335Z,12.00
2017-10-02T03:02:53.902Z,12.00
2017-10-02T03:05:22.174Z,12.10
2017-10-02T03:07:50.198Z,12.00
2017-10-02T03:10:17.719Z,12.00
2017-10-02T03:12:45.223Z,12.00
2017-10-02T03:15:12.741Z,12.00
2017-10-02T03:17:40.238Z,12.00
2017-10-02T03:20:07.754Z,12.00
2017-10-02T03:22:35.251Z,12.00
2017-10-02T03:25:02.765Z,12.00
2017-10-02T03:27:30.270Z,11.80
2017-10-02T03:29:57.880Z,11.80
2017-10-02T03:32:25.374Z,11.70
2017-10-02T03:34:52.870Z,11.70
2017-10-02T03:37:21.146Z,11.70
2017-10-02T03:39:49.438Z,11.70
2017-10-02T03:42:16.986Z,11.70
2017-10-02T03:44:44.483Z,11.70
2017-10-02T03:47:12.003Z,11.80
2017-10-02T03:49:39.510Z,11.70
2017-10-02T03:52:07.026Z,11.70
2017-10-02T03:54:34.530Z,11.70
2017-10-02T03:57:02.042Z,11.70
2017-10-02T03:59:30.119Z,11.70
2017-10-02T04:01:57.662Z,11.70
2017-10-02T04:04:25.922Z,11.70
2017-10-02T04:06:54.278Z,11.60
2017-10-02T04:09:21.779Z,11.60
2017-10-02T04:11:49.295Z,11.60
2017-10-02T04:14:16.803Z,11.60
2017-10-02T04:16:44.351Z,11.60
2017-10-02T04:19:11.906Z,11.60
2017-10-02T04:21:39.779Z,11.60
2017-10-02T04:24:07.335Z,11.60
2017-10-02T04:26:34.843Z,11.60
2017-10-02T04:29:02.450Z,11.60
2017-10-02T04:31:30.015Z,11.60
2017-10-02T04:33:57.525Z,11.60
2017-10-02T04:36:25.018Z,11.60
2017-10-02T04:38:53.307Z,11.70
2017-10-02T04:41:20.811Z,11.60
2017-10-02T04:43:48.330Z,11.70
2017-10-02T04:46:15.830Z,11.70
2017-10-02T04:48:43.366Z,11.70
2017-10-02T04:51:10.866Z,11.70
2017-10-02T04:53:38.455Z,11.70
2017-10-02T04:56:05.974Z,11.60
2017-10-02T04:58:33.474Z,11.60
2017-10-02T05:01:00.997Z,11.70
2017-10-02T05:03:28.499Z,11.70
2017-10-02T05:05:56.039Z,11.70
2017-10-02T05:08:23.537Z,11.70
2017-10-02T05:10:51.049Z,11.80
2017-10-02T05:13:19.319Z,11.70
2017-10-02T05:15:47.714Z,11.70
2017-10-02T05:18:15.270Z,11.70
2017-10-02T05:20:42.777Z,11.70
2017-10-02T05:23:10.594Z,11.70
2017-10-02T05:25:38.105Z,11.70
2017-10-02T05:28:05.711Z,11.80
2017-10-02T05:30:33.227Z,11.80
2017-10-02T05:33:00.731Z,11.80
2017-10-02T05:35:28.248Z,11.80
2017-10-02T05:37:55.763Z,11.70
2017-10-02T05:40:23.306Z,11.70
2017-10-02T05:42:50.818Z,11.70
2017-10-02T05:45:18.428Z,11.80
2017-10-02T05:47:45.986Z,11.80
2017-10-02T05:50:14.354Z,11.80
2017-10-02T05:52:41.873Z,11.90
2017-10-02T05:55:09.479Z,11.90
2017-10-02T05:57:36.994Z,12.00
2017-10-02T06:00:04.495Z,12.10
2017-10-02T06:02:32.010Z,12.20
2017-10-02T06:04:59.611Z,12.20
2017-10-02T06:07:27.122Z,12.30
2017-10-02T06:09:54.724Z,12.40
2017-10-02T06:12:22.235Z,12.40
2017-10-02T06:14:49.842Z,12.50
2017-10-02T06:17:17.402Z,12.60
2017-10-02T06:19:44.899Z,12.70
2017-10-02T06:22:12.422Z,12.70
2017-10-02T06:24:39.987Z,12.80
2017-10-02T06:27:07.491Z,12.90
2017-10-02T06:29:35.012Z,13.10
2017-10-02T06:32:02.551Z,13.10
2017-10-02T06:34:30.071Z,13.20
2017-10-02T06:36:57.666Z,13.20
2017-10-02T06:39:25.226Z,13.30
2017-10-02T06:41:52.722Z,13.40
2017-10-02T06:44:20.248Z,13.40
2017-10-02T06:46:48.210Z,13.50
2017-10-02T06:49:15.731Z,13.50
2017-10-02T06:51:43.330Z,13.60
2017-10-02T06:54:10.846Z,13.60
2017-10-02T06:56:38.346Z,13.70
2017-10-02T06:59:05.901Z,13.70
2017-10-02T07:01:34.163Z,13.80
2017-10-02T07:04:02.453Z,13.90
2017-10-02T07:06:30.154Z,13.90
2017-10-02T07:08:57.674Z,14.00
2017-10-02T07:11:25.170Z,14.00
2017-10-02T07:13:52.666Z,14.10
2017-10-02T07:16:20.202Z,14.10
2017-10-02T07:18:47.707Z,14.20
2017-10-02T07:21:15.226Z,14.20
2017-10-02T07:23:42.808Z,14.20
2017-10-02T07:26:11.090Z,14.30
2017-10-02T07:28:40.027Z,14.30
2017-10-02T07:31:07.546Z,14.30
2017-10-02T07:33:35.813Z,14.40
2017-10-02T07:36:04.094Z,14.40
2017-10-02T07:38:32.370Z,14.50
2017-10-02T07:40:59.943Z,14.50
2017-10-02T07:43:28.332Z,14.50
2017-10-02T07:45:55.846Z,14.50
2017-10-02T07:48:24.110Z,14.60
2017-10-02T07:50:51.629Z,14.60
2017-10-02T07:53:19.136Z,14.60
2017-10-02T07:55:46.665Z,14.60
2017-10-02T07:58:14.190Z,14.60
2017-10-02T08:00:41.739Z,14.60
2017-10-02T08:03:09.255Z,14.60
2017-10-02T08:05:36.754Z,14.60
2017-10-02T08:08:04.332Z,14.60
2017-10-02T08:10:31.830Z,14.60
2017-10-02T08:12:59.347Z,14.70
2017-10-02T08:15:26.851Z,14.70
2017-10-02T08:17:54.451Z,14.80
2017-10-02T08:20:21.963Z,14.80
2017-10-02T08:22:49.488Z,14.90
2017-10-02T08:25:17.016Z,14.90
2017-10-02T08:27:45.815Z,15.10
2017-10-02T08:30:13.323Z,15.10
2017-10-02T08:32:40.935Z,15.10
2017-10-02T08:35:08.439Z,15.20
2017-10-02T08:37:35.959Z,15.20
2017-10-02T08:40:04.191Z,15.30
2017-10-02T08:42:31.736Z,15.40
2017-10-02T08:44:59.866Z,15.40
2017-10-02T08:47:27.371Z,15.50
2017-10-02T08:49:54.967Z,15.60
2017-10-02T08:52:22.728Z,15.60
2017-10-02T08:54:50.255Z,15.70
2017-10-02T08:57:17.851Z,15.70
2017-10-02T08:59:45.583Z,15.80
2017-10-02T09:02:13.375Z,15.80
2017-10-02T09:04:40.895Z,15.80
2017-10-02T09:07:08.398Z,15.90
2017-10-02T09:09:35.959Z,15.90
2017-10-02T09:12:03.534Z,15.90
2017-10-02T09:14:31.066Z,15.90
2017-10-02T09:16:58.567Z,15.90
2017-10-02T09:19:26.092Z,16.00
2017-10-02T09:21:53.646Z,16.10
2017-10-02T09:24:21.202Z,16.10
2017-10-02T09:26:48.707Z,16.20
2017-10-02T09:29:16.830Z,16.20
2017-10-02T09:31:44.336Z,16.30
2017-10-02T09:34:11.855Z,16.30
2017-10-02T09:36:39.350Z,16.30
2017-10-02T09:39:06.983Z,16.30
2017-10-02T09:41:34.531Z,16.20
2017-10-02T09:44:02.090Z,16.20
2017-10-02T09:46:29.643Z,16.20
2017-10-02T09:48:57.146Z,16.20
2017-10-02T09:51:24.658Z,16.20
2017-10-02T09:53:52.187Z,16.30
2017-10-02T09:56:19.779Z,16.20
2017-10-02T09:58:47.343Z,16.10
2017-10-02T10:01:14.895Z,16.10
2017-10-02T10:03:42.459Z,16.00
2017-10-02T10:06:10.012Z,16.00
2017-10-02T10:08:37.527Z,15.90
2017-10-02T10:11:05.051Z,15.80
2017-10-02T10:13:33.302Z,15.80
2017-10-02T10:16:00.823Z,15.80
2017-10-02T10:19:21.831Z,15.70
2017-10-02T10:21:49.375Z,15.80
2017-10-02T10:24:16.883Z,15.70
2017-10-02T10:26:45.166Z,15.70
2017-10-02T10:29:12.667Z,15.70
2017-10-02T10:31:40.183Z,15.70
2017-10-02T10:34:07.742Z,15.70
2017-10-02T10:36:35.264Z,15.70
2017-10-02T10:39:02.768Z,15.80
2017-10-02T10:41:30.287Z,15.80
2017-10-02T10:43:58.560Z,15.90
2017-10-02T10:46:26.155Z,15.80
2017-10-02T10:48:53.663Z,15.90
2017-10-02T10:51:21.164Z,15.90
2017-10-02T10:53:48.683Z,16.00
2017-10-02T10:56:16.191Z,16.10
2017-10-02T10:58:43.747Z,16.10
2017-10-02T11:01:11.252Z,16.20
2017-10-02T11:03:38.771Z,16.20
2017-10-02T11:06:06.270Z,16.30
2017-10-02T11:08:33.795Z,16.30
2017-10-02T11:11:01.299Z,16.40
2017-10-02T11:13:28.816Z,16.50
2017-10-02T11:15:56.315Z,16.50
2017-10-02T11:18:23.835Z,16.60
2017-10-02T11:20:51.368Z,16.70
2017-10-02T11:23:18.928Z,16.80
2017-10-02T11:25:46.438Z,16.90
2017-10-02T11:28:14.041Z,16.90
2017-10-02T11:30:41.551Z,17.10
2017-10-02T11:33:09.068Z,17.20
2017-10-02T11:35:36.611Z,17.30
2017-10-02T11:38:04.131Z,17.40
2017-10-02T11:40:31.734Z,17.50
2017-10-02T11:42:59.254Z,17.50
2017-10-02T11:45:26.762Z,17.60
2017-10-02T11:47:54.263Z,17.50
2017-10-02T11:50:21.778Z,17.60
2017-10-02T11:52:49.276Z,17.60
2017-10-02T11:55:16.884Z,17.50
2017-10-02T11:57:44.442Z,17.60
2017-10-02T12:00:11.963Z,17.60
2017-10-02T12:02:39.559Z,17.60
2017-10-02T12:05:07.151Z,17.60
2017-10-02T12:07:34.655Z,17.70
2017-10-02T12:10:02.239Z,17.70
2017-10-02T12:12:29.743Z,17.80
2017-10-02T12:14:57.773Z,17.80
2017-10-02T12:17:25.327Z,17.80
2017-10-02T12:19:52.896Z,17.80
2017-10-02T12:22:20.403Z,17.90
2017-10-02T12:24:47.931Z,17.90
2017-10-02T12:27:15.467Z,18.00
2017-10-02T12:29:42.975Z,18.00
2017-10-02T12:32:10.575Z,18.10
2017-10-02T12:34:38.075Z,18.10
2017-10-02T12:37:05.603Z,18.20
2017-10-02T12:39:33.152Z,18.10
2017-10-02T12:42:00.688Z,18.10
2017-10-02T12:44:28.967Z,18.20
2017-10-02T12:46:57.262Z,18.20
2017-10-02T12:49:24.763Z,18.20
2017-10-02T12:51:53.005Z,18.20
2017-10-02T12:54:20.506Z,18.20
2017-10-02T12:56:48.027Z,18.30
2017-10-02T12:59:15.531Z,18.30
2017-10-02T13:01:43.071Z,18.40
2017-10-02T13:04:10.571Z,18.40
2017-10-02T13:06:38.872Z,18.50
2017-10-02T13:09:06.386Z,18.50
2017-10-02T13:11:33.888Z,18.50
2017-10-02T13:14:01.412Z,18.50
2017-10-02T13:16:29.687Z,18.40
2017-10-02T13:18:57.979Z,18.40
2017-10-02T13:21:25.548Z,18.40
2017-10-02T13:23:53.062Z,18.40
2017-10-02T13:26:21.340Z,18.40
2017-10-02T13:28:48.938Z,18.40
2017-10-02T13:31:16.862Z,18.40
2017-10-02T13:33:44.467Z,18.40
2017-10-02T13:36:11.980Z,18.50
2017-10-02T13:38:39.499Z,18.50
2017-10-02T13:41:06.999Z,18.50
2017-10-02T13:43:34.511Z,18.50
2017-10-02T13:46:02.015Z,18.50
2017-10-02T13:48:29.539Z,18.50
2017-10-02T13:50:57.042Z,18.50
2017-10-02T13:53:25.347Z,18.50
2017-10-02T13:55:52.853Z,18.50
2017-10-02T13:58:20.356Z,18.50
2017-10-02T14:00:47.875Z,18.50
2017-10-02T14:03:15.779Z,18.50
2017-10-02T14:05:43.331Z,18.50
2017-10-02T14:08:11.598Z,18.40
2017-10-02T14:10:39.882Z,18.40
2017-10-02T14:13:08.150Z,18.40
2017-10-02T14:15:36.434Z,18.40
2017-10-02T14:18:04.707Z,18.40
2017-10-02T14:20:32.992Z,18.40
2017-10-02T14:23:01.254Z,18.40
2017-10-02T14:25:29.544Z,18.40
2017-10-02T14:27:57.043Z,18.40
2017-10-02T14:30:24.563Z,18.50
2017-10-02T14:32:52.122Z,18.50
2017-10-02T14:35:19.699Z,18.50
2017-10-02T14:37:47.259Z,18.60
2017-10-02T14:40:14.788Z,18.60
2017-10-02T14:42:43.061Z,18.60
2017-10-02T14:45:11.455Z,18.50
2017-10-02T14:47:38.960Z,18.50
2017-10-02T14:50:06.887Z,18.50
2017-10-02T14:52:34.444Z,18.50
2017-10-02T14:55:01.951Z,18.40
2017-10-02T14:57:29.563Z,18.40
2017-10-02T14:59:57.067Z,18.40
2017-10-02T15:02:25.207Z,18.40
2017-10-02T15:04:52.746Z,18.30
2017-10-02T15:07:20.268Z,18.30
2017-10-02T15:09:47.775Z,18.30
2017-10-02T15:12:15.300Z,18.30
2017-10-02T15:14:43.586Z,18.30
2017-10-02T15:17:11.879Z,18.30
2017-10-02T15:19:39.379Z,18.30
2017-10-02T15:22:06.917Z,18.30
2017-10-02T15:24:34.447Z,18.20
2017-10-02T15:27:02.519Z,18.20
2017-10-02T15:29:30.575Z,18.20
2017-10-02T15:31:58.864Z,18.20
2017-10-02T15:34:26.379Z,18.20
2017-10-02T15:36:53.907Z,18.20
2017-10-02T15:39:21.417Z,18.20
2017-10-02T15:41:49.718Z,18.20
2017-10-02T15:44:17.235Z,18.10
2017-10-02T15:46:44.747Z,18.10
2017-10-02T15:49:12.261Z,18.10
2017-10-02T15:51:40.571Z,18.10
2017-10-02T15:54:08.095Z,18.10
2017-10-02T15:56:35.687Z,18.00
2017-10-02T15:59:03.199Z,18.00
2017-10-02T16:01:30.704Z,18.00
2017-10-02T16:03:58.262Z,18.00
2017-10-02T16:06:25.817Z,18.00
2017-10-02T16:08:53.331Z,17.90
2017-10-02T16:11:20.936Z,17.90
2017-10-02T16:13:48.467Z,17.90
2017-10-02T16:16:16.739Z,17.90
2017-10-02T16:18:44.247Z,17.90
2017-10-02T16:21:11.767Z,17.90
2017-10-02T16:23:40.035Z,17.90
2017-10-02T16:26:08.327Z,17.80
2017-10-02T16:28:36.627Z,17.90
2017-10-02T16:31:04.147Z,17.80
2017-10-02T16:33:32.427Z,17.80
2017-10-02T16:36:00.719Z,17.80
2017-10-02T16:38:28.939Z,17.80
2017-10-02T16:40:56.577Z,17.80
2017-10-02T16:43:24.092Z,17.70
2017-10-02T16:45:51.611Z,17.70
2017-10-02T16:48:19.119Z,17.70
2017-10-02T16:50:47.498Z,17.70
2017-10-02T16:53:15.776Z,17.70
2017-10-02T16:55:44.071Z,17.70
2017-10-02T16:58:11.585Z,17.70
2017-10-02T17:00:39.183Z,17.70
2017-10-02T17:03:06.743Z,17.60
2017-10-02T17:05:34.273Z,17.60
2017-10-02T17:08:02.543Z,17.60
2017-10-02T17:10:30.136Z,17.60
2017-10-02T17:12:57.739Z,17.60
2017-10-02T17:15:25.260Z,17.50
2017-10-02T17:17:52.784Z,17.60
2017-10-02T17:20:21.181Z,17.50
2017-10-02T17:22:49.468Z,17.50
2017-10-02T17:25:17.027Z,17.50
2017-10-02T17:27:44.547Z,17.50
2017-10-02T17:30:12.053Z,17.50
2017-10-02T17:32:39.586Z,17.50
2017-10-02T17:35:07.875Z,17.40
2017-10-02T17:37:35.400Z,17.40
2017-10-02T17:40:02.912Z,17.40
2017-10-02T17:42:30.430Z,17.40
2017-10-02T17:44:58.841Z,17.40
2017-10-02T17:47:26.387Z,17.40
2017-10-02T17:49:53.951Z,17.40
2017-10-02T17:52:21.474Z,17.40
2017-10-02T17:54:48.971Z,17.30
2017-10-02T17:57:16.496Z,17.30
2017-10-02T17:59:44.787Z,17.30
2017-10-02T18:02:13.068Z,17.30
2017-10-02T18:04:40.592Z,17.30
2017-10-02T18:07:08.100Z,17.30
2017-10-02T18:09:35.647Z,17.30
2017-10-02T18:12:03.206Z,17.30
2017-10-02T18:14:30.735Z,17.30
2017-10-02T18:16:58.327Z,17.30
2017-10-02T18:19:25.847Z,17.30
2017-10-02T18:21:53.357Z,17.30
2017-10-02T18:24:20.903Z,17.30
2017-10-02T18:26:48.459Z,17.30
2017-10-02T18:29:16.020Z,17.30
2017-10-02T18:31:43.576Z,17.30
2017-10-02T18:34:11.098Z,17.30
2017-10-02T18:36:38.605Z,17.30
2017-10-02T18:39:06.127Z,17.30
2017-10-02T18:41:34.399Z,17.30
2017-10-02T18:44:02.781Z,17.30
2017-10-02T18:46:31.047Z,17.30
2017-10-02T18:48:58.542Z,17.30
2017-10-02T18:51:26.067Z,17.30
2017-10-02T18:53:54.947Z,17.30
2017-10-02T18:56:22.470Z,17.20
2017-10-02T18:58:49.985Z,17.30
2017-10-02T19:01:18.378Z,17.30
2017-10-02T19:03:45.943Z,17.20
2017-10-02T19:06:13.511Z,17.30
2017-10-02T19:08:41.021Z,17.30
2017-10-02T19:11:08.616Z,17.30
2017-10-02T19:13:36.123Z,17.30
2017-10-02T19:16:03.652Z,17.20
2017-10-02T19:18:31.146Z,17.20
2017-10-02T19:20:58.666Z,17.20
2017-10-02T19:23:26.208Z,17.20
2017-10-02T19:25:53.733Z,17.20
2017-10-02T19:28:22.004Z,17.20
2017-10-02T19:30:49.522Z,17.20
2017-10-02T19:33:17.059Z,17.20
2017-10-02T19:35:44.618Z,17.20
2017-10-02T19:38:12.122Z,17.10
2017-10-02T19:40:39.631Z,17.10
2017-10-02T19:43:07.166Z,17.20
2017-10-02T19:45:35.430Z,17.20
2017-10-02T19:48:03.438Z,17.10
2017-10-02T19:50:31.443Z,17.10
2017-10-02T19:52:58.962Z,17.20
2017-10-02T19:55:26.466Z,17.20
2017-10-02T19:57:53.982Z,17.20
2017-10-02T20:00:21.479Z,17.20
2017-10-02T20:02:49.003Z,17.20
2017-10-02T20:05:16.511Z,17.20
2017-10-02T20:07:44.058Z,17.20
2017-10-02T20:10:11.567Z,17.20
2017-10-02T20:12:39.127Z,17.10
2017-10-02T20:15:06.631Z,17.20
2017-10-02T20:17:34.131Z,17.10
2017-10-02T20:20:02.411Z,17.10
2017-10-02T20:22:30.474Z,17.10
2017-10-02T20:24:58.760Z,17.10
2017-10-02T20:27:26.273Z,17.10
2017-10-02T20:29:53.804Z,17.10
2017-10-02T20:32:21.302Z,17.10
2017-10-02T20:34:48.818Z,17.10
2017-10-02T20:37:16.314Z,17.00
2017-10-02T20:39:43.842Z,17.00
2017-10-02T20:42:11.370Z,17.00
2017-10-02T20:44:38.927Z,17.00
2017-10-02T20:47:06.503Z,16.90
2017-10-02T20:49:34.036Z,16.80
2017-10-02T20:52:02.312Z,16.60
2017-10-02T20:54:29.883Z,16.60
2017-10-02T20:56:57.386Z,16.50
2017-10-02T20:59:24.926Z,16.50
2017-10-02T21:01:52.431Z,16.40
2017-10-02T21:04:20.708Z,16.20
2017-10-02T21:06:49.004Z,16.20
2017-10-02T21:09:16.499Z,16.20
2017-10-02T21:11:44.018Z,16.10
2017-10-02T21:14:11.523Z,16.10
2017-10-02T21:16:39.144Z,16.00
2017-10-02T21:19:06.653Z,16.00
2017-10-02T21:21:34.174Z,16.00
2017-10-02T21:24:01.786Z,16.00
2017-10-02T21:26:29.306Z,16.00
2017-10-02T21:28:56.816Z,16.10
2017-10-02T21:31:25.675Z,16.10
2017-10-02T21:33:53.181Z,16.10
2017-10-02T21:36:20.703Z,16.10
2017-10-02T21:38:48.210Z,16.10
2017-10-02T21:41:15.728Z,16.10
2017-10-02T21:43:44.002Z,16.10
2017-10-02T21:46:12.266Z,16.10
2017-10-02T21:48:39.787Z,16.10
2017-10-02T21:51:07.292Z,16.10
2017-10-02T21:53:35.583Z,16.20
2017-10-02T21:56:03.851Z,16.20
2017-10-02T21:58:32.135Z,16.10
2017-10-02T22:01:00.406Z,16.20
2017-10-02T22:03:28.804Z,16.20
2017-10-02T22:05:56.365Z,16.20
2017-10-02T22:08:23.915Z,16.20
2017-10-02T22:10:51.410Z,16.20
2017-10-02T22:13:18.939Z,16.10
2017-10-02T22:15:46.442Z,16.10
2017-10-02T22:18:13.964Z,16.00
2017-10-02T22:20:41.463Z,16.00
2017-10-02T22:23:08.983Z,16.00
2017-10-02T22:25:36.496Z,16.00
2017-10-02T22:28:04.035Z,16.00
2017-10-02T22:30:32.344Z,16.00
2017-10-02T22:33:00.611Z,16.00
2017-10-02T22:35:28.903Z,16.00
2017-10-02T22:37:56.715Z,16.00
2017-10-02T22:40:24.234Z,16.00
2017-10-02T22:42:51.739Z,16.00
2017-10-02T22:45:19.263Z,16.00
2017-10-02T22:47:46.767Z,16.00
2017-10-02T22:50:14.291Z,16.00
2017-10-02T22:52:41.799Z,15.90
2017-10-02T22:55:10.108Z,15.90
2017-10-02T22:57:37.616Z,15.90
2017-10-02T23:00:05.135Z,15.90
2017-10-02T23:02:32.674Z,15.90
2017-10-02T23:05:00.195Z,15.90
2017-10-02T23:07:27.798Z,15.90
2017-10-02T23:09:55.320Z,15.90
2017-10-02T23:12:22.824Z,15.90
2017-10-02T23:14:50.367Z,15.90
2017-10-02T23:17:18.631Z,15.90
2017-10-02T23:19:46.943Z,16.00
2017-10-02T23:22:14.442Z,16.00
2017-10-02T23:24:42.043Z,16.00
2017-10-02T23:27:09.558Z,16.00
2017-10-02T23:29:37.055Z,16.10
2017-10-02T23:32:04.575Z,16.10
2017-10-02T23:34:32.098Z,16.10
2017-10-02T23:36:59.617Z,16.10
2017-10-02T23:39:28.383Z,16.10
2017-10-02T23:41:55.903Z,16.10
2017-10-02T23:44:23.403Z,16.10
2017-10-02T23:46:51.690Z,16.20
2017-10-02T23:49:19.959Z,16.20
2017-10-02T23:51:48.246Z,16.20
2017-10-02T23:54:16.510Z,16.20
2017-10-02T23:56:44.790Z,16.10
2017-10-02T23:59:13.055Z,16.10
